createdAt,value
2023-04-09T00:01:39.208Z,13.52
2023-04-09T00:04:44.495Z,12.82
2023-04-09T00:07:50.254Z,13.32
2023-04-09T00:10:56.223Z,14.07
2023-04-09T00:14:04.289Z,12.90
2023-04-09T00:17:09.587Z,13.20
2023-04-09T00:20:15.094Z,13.02
2023-04-09T00:23:20.953Z,13.48
2023-04-09T00:26:26.306Z,15.25
2023-04-09T00:29:34.138Z,13.30
2023-04-09T00:32:39.734Z,14.73
2023-04-09T00:35:45.055Z,12.50
2023-04-09T00:38:51.495Z,13.98
2023-04-09T00:41:59.483Z,13.85
2023-04-09T00:45:07.331Z,13.73
2023-04-09T00:48:12.594Z,13.95
2023-04-09T00:51:17.764Z,15.32
2023-04-09T00:54:23.188Z,13.90
2023-04-09T00:57:29.335Z,13.05
2023-04-09T01:00:37.242Z,13.32
2023-04-09T01:03:42.724Z,13.32
2023-04-09T01:06:52.683Z,13.63
2023-04-09T01:10:04.379Z,13.20
2023-04-09T01:13:15.977Z,13.55
2023-04-09T01:16:26.262Z,14.00
2023-04-09T01:19:38.230Z,13.27
2023-04-09T01:22:53.047Z,14.07
2023-04-09T01:26:05.382Z,13.18
2023-04-09T01:29:24.435Z,13.18
2023-04-09T01:32:32.724Z,12.63
2023-04-09T01:35:38.299Z,13.93
2023-04-09T01:38:44.534Z,13.98
2023-04-09T01:41:49.931Z,14.35
2023-04-09T01:44:58.110Z,14.48
2023-04-09T01:48:03.593Z,13.95
2023-04-09T01:51:09.131Z,13.85
2023-04-09T01:54:14.814Z,14.07
2023-04-09T01:57:20.171Z,13.55
2023-04-09T02:00:30.249Z,13.88
2023-04-09T02:03:37.439Z,13.57
2023-04-09T02:06:43.772Z,12.95
2023-04-09T02:09:51.044Z,14.55
2023-04-09T02:12:58.905Z,13.25
2023-04-09T02:16:07.718Z,12.68
2023-04-09T02:19:13.430Z,12.98
2023-04-09T02:22:19.296Z,12.70
2023-04-09T02:25:24.723Z,13.50
2023-04-09T02:28:30.032Z,12.80
2023-04-09T02:31:38.048Z,12.85
2023-04-09T02:34:43.270Z,12.55
2023-04-09T02:37:48.597Z,13.23
2023-04-09T02:40:53.971Z,13.18
2023-04-09T02:43:59.303Z,13.05
2023-04-09T02:47:07.274Z,12.50
2023-04-09T02:50:14.483Z,13.45
2023-04-09T02:53:26.246Z,12.90
2023-04-09T02:56:31.908Z,12.30
2023-04-09T02:59:39.362Z,13.10
2023-04-09T03:02:47.822Z,13.97
2023-04-09T03:05:53.603Z,13.05
2023-04-09T03:08:58.991Z,12.75
2023-04-09T03:12:04.394Z,13.70
2023-04-09T03:15:10.450Z,13.88
2023-04-09T03:18:18.608Z,13.43
2023-04-09T03:21:24.194Z,13.20
2023-04-09T03:24:30.176Z,13.90
2023-04-09T03:27:39.024Z,12.60
2023-04-09T03:30:44.604Z,13.77
2023-04-09T03:33:52.942Z,13.48
2023-04-09T03:36:58.176Z,13.98
2023-04-09T03:40:08.860Z,12.63
2023-04-09T03:43:14.212Z,13.48
2023-04-09T03:46:26.287Z,13.73
2023-04-09T03:49:37.777Z,14.15
2023-04-09T03:52:55.126Z,14.38
2023-04-09T03:56:02.200Z,14.38
2023-04-09T03:59:07.952Z,14.98
2023-04-09T04:02:17.700Z,14.48
2023-04-09T04:05:31.094Z,14.23
2023-04-09T04:08:40.788Z,13.88
2023-04-09T04:11:47.465Z,14.70
2023-04-09T04:14:53.574Z,15.57
2023-04-09T04:18:05.725Z,15.80
2023-04-09T04:21:25.240Z,14.77
2023-04-09T04:24:37.188Z,15.15
2023-04-09T04:27:44.969Z,15.48
2023-04-09T04:30:52.513Z,14.50
2023-04-09T04:33:58.320Z,15.60
2023-04-09T04:37:06.643Z,16.05
2023-04-09T04:40:12.935Z,14.23
2023-04-09T04:43:20.794Z,15.38
2023-04-09T04:46:27.972Z,16.65
2023-04-09T04:49:33.556Z,15.05
2023-04-09T04:52:44.337Z,16.60
2023-04-09T04:55:49.773Z,15.10
2023-04-09T04:59:00.768Z,15.23
2023-04-09T05:02:12.351Z,15.73
2023-04-09T05:05:38.139Z,15.45
2023-04-09T05:08:46.729Z,15.88
2023-04-09T05:11:52.417Z,15.80
2023-04-09T05:15:01.399Z,16.27
2023-04-09T05:18:08.378Z,14.93
2023-04-09T05:21:14.908Z,16.23
2023-04-09T05:24:25.599Z,15.80
2023-04-09T05:27:31.466Z,16.20
2023-04-09T05:30:39.790Z,16.33
2023-04-09T05:33:47.401Z,15.52
2023-04-09T05:36:58.693Z,16.15
2023-04-09T05:40:07.774Z,15.35
2023-04-09T05:43:13.256Z,16.20
2023-04-09T05:46:22.050Z,15.98
2023-04-09T05:49:28.483Z,15.45
2023-04-09T05:52:35.645Z,16.08
2023-04-09T05:55:44.500Z,15.15
2023-04-09T05:58:50.601Z,14.63
2023-04-09T06:01:56.449Z,14.85
2023-04-09T06:05:02.423Z,16.08
2023-04-09T06:08:08.498Z,16.40
2023-04-09T06:11:17.032Z,15.13
2023-04-09T06:14:22.901Z,15.85
2023-04-09T06:17:28.395Z,16.90
2023-04-09T06:20:33.860Z,16.27
2023-04-09T06:23:39.711Z,15.93
2023-04-09T06:26:47.826Z,15.70
2023-04-09T06:29:53.324Z,16.70
2023-04-09T06:32:58.525Z,16.45
2023-04-09T06:36:03.814Z,15.13
2023-04-09T06:39:09.234Z,18.67
2023-04-09T06:42:17.204Z,17.88
2023-04-09T06:45:35.754Z,16.85
2023-04-09T06:48:43.062Z,16.17
2023-04-09T06:51:48.120Z,19.40
2023-04-09T06:54:53.686Z,18.23
2023-04-09T06:58:02.968Z,16.88
2023-04-09T07:01:08.409Z,16.02
2023-04-09T07:04:14.063Z,17.98
2023-04-09T07:07:21.480Z,16.42
2023-04-09T07:10:27.065Z,18.33
2023-04-09T07:13:34.983Z,17.40
2023-04-09T07:16:40.717Z,16.35
2023-04-09T07:19:46.472Z,16.60
2023-04-09T07:22:51.898Z,15.82
2023-04-09T07:25:57.611Z,15.20
2023-04-09T07:29:05.532Z,16.13
2023-04-09T07:32:10.948Z,14.90
2023-04-09T07:35:16.146Z,16.13
2023-04-09T07:38:21.740Z,15.50
2023-04-09T07:41:27.212Z,16.98
2023-04-09T07:44:36.914Z,15.50
2023-04-09T07:47:42.423Z,15.73
2023-04-09T07:50:48.599Z,15.00
2023-04-09T07:53:53.751Z,14.25
2023-04-09T07:56:59.237Z,14.05
2023-04-09T08:00:07.729Z,15.65
2023-04-09T08:03:20.137Z,14.80
2023-04-09T08:06:27.012Z,14.05
2023-04-09T08:09:32.597Z,15.60
2023-04-09T08:12:38.215Z,13.50
2023-04-09T08:15:46.218Z,14.70
2023-04-09T08:18:52.031Z,15.60
2023-04-09T08:21:59.084Z,15.73
2023-04-09T08:25:04.631Z,15.48
2023-04-09T08:28:10.079Z,15.80
2023-04-09T08:31:18.080Z,12.90
2023-04-09T08:34:23.480Z,13.82
2023-04-09T08:37:29.299Z,14.82
2023-04-09T08:40:37.649Z,13.55
2023-04-09T08:43:57.077Z,13.68
2023-04-09T08:47:11.780Z,12.88
2023-04-09T08:50:17.475Z,12.00
2023-04-09T08:53:25.078Z,10.68
2023-04-09T08:56:31.139Z,10.43
2023-04-09T08:59:38.163Z,11.98
2023-04-09T09:03:04.850Z,11.80
2023-04-09T09:06:23.534Z,13.07
2023-04-09T09:09:28.750Z,11.70
2023-04-09T09:12:35.051Z,11.45
2023-04-09T09:15:40.549Z,11.27
2023-04-09T09:18:48.616Z,11.95
2023-04-09T09:21:59.135Z,12.60
2023-04-09T09:25:04.471Z,12.93
2023-04-09T09:28:13.586Z,11.98
2023-04-09T09:31:19.516Z,12.52
2023-04-09T09:34:28.380Z,12.15
2023-04-09T09:37:34.292Z,13.15
2023-04-09T09:40:39.832Z,13.68
2023-04-09T09:43:45.327Z,13.60
2023-04-09T09:46:50.621Z,12.93
2023-04-09T09:49:58.664Z,12.57
2023-04-09T09:53:06.124Z,12.02
2023-04-09T09:56:18.106Z,13.30
2023-04-09T09:59:24.713Z,11.68
2023-04-09T10:02:31.616Z,13.15
2023-04-09T10:05:40.328Z,12.13
2023-04-09T10:08:46.077Z,11.82
2023-04-09T10:11:51.780Z,12.45
2023-04-09T10:14:58.326Z,11.70
2023-04-09T10:18:03.773Z,13.63
2023-04-09T10:21:13.613Z,12.07
2023-04-09T10:24:19.291Z,11.85
2023-04-09T10:27:24.811Z,12.30
2023-04-09T10:30:36.326Z,12.73
2023-04-09T10:33:41.973Z,11.07
2023-04-09T10:36:53.565Z,11.98
2023-04-09T10:39:59.337Z,11.90
2023-04-09T10:43:04.946Z,11.27
2023-04-09T10:46:11.182Z,10.52
2023-04-09T10:49:18.839Z,10.45
2023-04-09T10:52:34.332Z,10.20
2023-04-09T10:55:40.258Z,10.07
2023-04-09T10:58:45.751Z,10.90
2023-04-09T11:01:55.706Z,9.75
2023-04-09T11:05:08.244Z,10.10
2023-04-09T11:08:16.846Z,10.82
2023-04-09T11:14:27.795Z,9.57
2023-04-09T11:17:34.381Z,10.00
2023-04-09T11:20:39.902Z,9.82
2023-04-09T11:23:54.481Z,11.55
2023-04-09T11:26:59.655Z,9.77
2023-04-09T11:30:04.961Z,10.80
2023-04-09T11:33:10.563Z,10.52
2023-04-09T11:36:16.657Z,10.30
2023-04-09T11:39:24.596Z,10.32
2023-04-09T11:42:34.120Z,10.65
2023-04-09T11:45:39.711Z,10.35
2023-04-09T11:48:45.095Z,10.02
2023-04-09T11:51:50.687Z,9.88
2023-04-09T11:55:02.694Z,10.35
2023-04-09T11:58:08.015Z,10.73
2023-04-09T12:01:13.355Z,10.20
2023-04-09T12:04:22.977Z,10.57
2023-04-09T12:07:34.758Z,9.55
2023-04-09T12:10:42.741Z,10.45
2023-04-09T12:13:49.060Z,10.48
2023-04-09T12:16:54.642Z,9.95
2023-04-09T12:20:00.249Z,10.45
2023-04-09T12:23:06.516Z,10.82
2023-04-09T12:26:15.013Z,9.85
2023-04-09T12:29:26.314Z,9.85
2023-04-09T12:32:31.693Z,10.25
2023-04-09T12:35:38.608Z,10.05
2023-04-09T12:38:44.151Z,9.65
2023-04-09T12:41:54.928Z,10.52
2023-04-09T12:45:00.150Z,10.18
2023-04-09T12:48:05.557Z,9.93
2023-04-09T12:51:11.603Z,10.02
2023-04-09T12:54:17.020Z,10.35
2023-04-09T12:57:24.964Z,10.07
2023-04-09T13:00:31.525Z,10.15
2023-04-09T13:03:36.997Z,10.45
2023-04-09T13:06:42.760Z,10.93
2023-04-09T13:09:48.488Z,9.73
2023-04-09T13:12:56.779Z,10.93
2023-04-09T13:16:02.502Z,10.30
2023-04-09T13:19:08.201Z,10.65
2023-04-09T13:22:13.475Z,10.10
2023-04-09T13:25:18.743Z,10.75
2023-04-09T13:28:27.341Z,10.55
2023-04-09T13:34:37.829Z,9.93
2023-04-09T13:37:43.231Z,10.07
2023-04-09T13:40:48.808Z,10.85
2023-04-09T13:43:57.033Z,11.45
2023-04-09T13:47:02.461Z,10.80
2023-04-09T13:50:10.734Z,10.50
2023-04-09T13:53:16.242Z,11.15
2023-04-09T13:56:21.883Z,11.43
2023-04-09T13:59:29.915Z,11.02
2023-04-09T14:02:35.465Z,11.35
2023-04-09T14:05:40.882Z,10.32
2023-04-09T14:08:47.116Z,11.38
2023-04-09T14:11:54.680Z,10.15
2023-04-09T14:15:02.770Z,11.18
2023-04-09T14:18:08.992Z,10.43
2023-04-09T14:21:14.281Z,10.45
2023-04-09T14:24:20.495Z,11.15
2023-04-09T14:27:26.295Z,10.18
2023-04-09T14:30:34.400Z,10.88
2023-04-09T14:33:39.551Z,10.40
2023-04-09T14:36:45.049Z,9.63
2023-04-09T14:39:50.349Z,12.88
2023-04-09T14:42:55.809Z,11.43
2023-04-09T14:46:04.340Z,10.70
2023-04-09T14:49:09.672Z,11.00
2023-04-09T14:52:15.007Z,9.88
2023-04-09T14:55:20.318Z,10.20
2023-04-09T14:58:25.681Z,10.25
2023-04-09T15:01:34.090Z,9.35
2023-04-09T15:04:39.709Z,9.93
2023-04-09T15:07:45.016Z,9.73
2023-04-09T15:10:51.391Z,9.85
2023-04-09T15:13:58.167Z,10.07
2023-04-09T15:17:06.228Z,9.98
2023-04-09T15:20:11.869Z,11.40
2023-04-09T15:23:17.557Z,9.95
2023-04-09T15:26:22.895Z,10.18
2023-04-09T15:29:28.495Z,10.95
2023-04-09T15:32:36.611Z,11.30
2023-04-09T15:35:42.193Z,10.35
2023-04-09T15:38:47.361Z,10.77
2023-04-09T15:41:52.747Z,10.27
2023-04-09T15:44:58.554Z,10.02
2023-04-09T15:48:06.638Z,9.68
2023-04-09T15:51:12.357Z,9.93
2023-04-09T15:54:18.015Z,10.07
2023-04-09T15:57:23.326Z,11.23
2023-04-09T16:00:28.983Z,9.85
2023-04-09T16:03:40.055Z,10.73
2023-04-09T16:06:45.318Z,10.27
2023-04-09T16:09:51.779Z,10.68
2023-04-09T16:12:56.976Z,10.27
2023-04-09T16:16:02.947Z,13.23
2023-04-09T16:19:10.907Z,13.13
2023-04-09T16:22:16.187Z,12.65
2023-04-09T16:25:21.577Z,12.25
2023-04-09T16:28:27.029Z,11.98
2023-04-09T16:31:32.186Z,12.38
2023-04-09T16:34:40.468Z,12.60
2023-04-09T16:37:45.927Z,12.43
2023-04-09T16:40:51.375Z,12.80
2023-04-09T16:43:56.598Z,12.07
2023-04-09T16:47:03.026Z,13.32
2023-04-09T16:50:12.305Z,12.68
2023-04-09T16:53:17.417Z,12.52
2023-04-09T16:56:22.820Z,12.93
2023-04-09T16:59:28.224Z,12.70
2023-04-09T17:02:33.647Z,12.68
2023-04-09T17:05:41.756Z,12.65
2023-04-09T17:08:48.288Z,13.23
2023-04-09T17:11:53.841Z,12.75
2023-04-09T17:14:59.266Z,12.95
2023-04-09T17:18:04.773Z,11.82
2023-04-09T17:21:12.785Z,13.55
2023-04-09T17:24:18.258Z,13.30
2023-04-09T17:27:23.485Z,13.48
2023-04-09T17:30:28.814Z,13.90
2023-04-09T17:33:34.255Z,13.60
2023-04-09T17:36:43.013Z,13.70
2023-04-09T17:39:48.219Z,12.52
2023-04-09T17:42:53.746Z,13.95
2023-04-09T17:45:59.237Z,14.82
2023-04-09T17:49:05.032Z,14.05
2023-04-09T17:52:13.424Z,14.43
2023-04-09T17:58:24.695Z,14.02
2023-04-09T18:01:30.339Z,14.07
2023-04-09T18:04:36.503Z,13.35
2023-04-09T18:07:45.036Z,14.88
2023-04-09T18:11:04.937Z,13.48
2023-04-09T18:14:16.749Z,14.30
2023-04-09T18:17:22.208Z,13.77
2023-04-09T18:20:27.815Z,13.40
2023-04-09T18:23:35.835Z,14.65
2023-04-09T18:26:41.495Z,14.82
2023-04-09T18:29:46.677Z,14.77
2023-04-09T18:32:52.828Z,14.45
2023-04-09T18:35:58.067Z,15.30
2023-04-09T18:39:06.951Z,15.63
2023-04-09T18:45:17.233Z,14.60
2023-04-09T18:48:23.533Z,14.15
2023-04-09T18:51:30.029Z,13.55
2023-04-09T18:54:39.136Z,15.77
2023-04-09T18:57:45.987Z,16.73
2023-04-09T19:00:52.672Z,17.63
2023-04-09T19:03:58.205Z,16.85
2023-04-09T19:07:03.620Z,17.20
2023-04-09T19:10:12.208Z,17.77
2023-04-09T19:13:17.586Z,16.05
2023-04-09T19:16:23.609Z,18.50
2023-04-09T19:19:29.323Z,16.45
2023-04-09T19:22:34.849Z,18.73
2023-04-09T19:25:43.138Z,16.13
2023-04-09T19:28:48.611Z,17.27
2023-04-09T19:31:54.100Z,17.13
2023-04-09T19:34:59.681Z,15.38
2023-04-09T19:38:05.248Z,16.48
2023-04-09T19:41:13.453Z,17.65
2023-04-09T19:44:18.628Z,15.77
2023-04-09T19:47:24.146Z,17.30
2023-04-09T19:50:29.519Z,17.25
2023-04-09T19:53:36.571Z,16.40
2023-04-09T19:56:44.572Z,16.17
2023-04-09T19:59:52.490Z,16.10
2023-04-09T20:02:58.249Z,16.63
2023-04-09T20:06:03.629Z,16.50
2023-04-09T20:09:12.798Z,16.08
2023-04-09T20:12:22.091Z,16.98
2023-04-09T20:15:27.738Z,17.45
2023-04-09T20:18:33.061Z,17.50
2023-04-09T20:21:38.435Z,16.25
2023-04-09T20:24:43.592Z,17.55
2023-04-09T20:27:52.078Z,20.10
2023-04-09T20:30:57.271Z,18.02
2023-04-09T20:34:02.814Z,18.40
2023-04-09T20:37:08.304Z,17.73
2023-04-09T20:40:14.784Z,18.00
2023-04-09T20:43:22.767Z,17.65
2023-04-09T20:46:28.502Z,17.83
2023-04-09T20:49:33.785Z,18.00
2023-04-09T20:52:39.673Z,16.85
2023-04-09T20:55:44.738Z,16.92
2023-04-09T20:58:52.930Z,18.58
2023-04-09T21:05:15.668Z,16.58
2023-04-09T21:08:27.124Z,18.00
2023-04-09T21:11:32.610Z,16.20
2023-04-09T21:14:40.980Z,15.65
2023-04-09T21:17:46.654Z,17.27
2023-04-09T21:20:52.721Z,17.25
2023-04-09T21:23:58.413Z,16.63
2023-04-09T21:27:07.204Z,16.77
2023-04-09T21:30:15.383Z,16.02
2023-04-09T21:33:20.761Z,18.55
2023-04-09T21:36:25.953Z,16.83
2023-04-09T21:39:32.009Z,15.30
2023-04-09T21:42:37.609Z,15.75
2023-04-09T21:45:45.556Z,15.35
2023-04-09T21:48:51.326Z,15.65
2023-04-09T21:51:57.334Z,14.77
2023-04-09T21:55:02.710Z,15.77
2023-04-09T21:58:09.548Z,15.73
2023-04-09T22:01:28.259Z,14.60
2023-04-09T22:04:35.382Z,14.82
2023-04-09T22:07:42.782Z,14.85
2023-04-09T22:10:48.139Z,15.20
2023-04-09T22:13:53.752Z,14.18
2023-04-09T22:17:02.143Z,14.25
2023-04-09T22:20:08.188Z,14.07
2023-04-09T22:23:13.680Z,15.57
2023-04-09T22:26:19.138Z,15.85
2023-04-09T22:29:24.254Z,13.73
2023-04-09T22:32:33.842Z,15.40
2023-04-09T22:35:39.264Z,14.18
2023-04-09T22:38:44.676Z,15.27
2023-04-09T22:41:50.027Z,14.63
2023-04-09T22:44:56.015Z,14.20
2023-04-09T22:48:03.917Z,15.40
2023-04-09T22:51:09.657Z,15.05
2023-04-09T22:54:14.715Z,15.43
2023-04-09T22:57:20.385Z,17.55
2023-04-09T23:00:25.834Z,15.52
2023-04-09T23:03:34.000Z,15.00
2023-04-09T23:06:39.222Z,15.57
2023-04-09T23:09:44.985Z,16.38
2023-04-09T23:12:51.042Z,16.70
2023-04-09T23:15:56.871Z,15.65
2023-04-09T23:19:04.727Z,16.02
2023-04-09T23:22:10.383Z,15.40
2023-04-09T23:25:15.955Z,16.27
2023-04-09T23:28:21.341Z,16.30
2023-04-09T23:31:26.561Z,15.45
2023-04-09T23:34:35.347Z,16.08
2023-04-09T23:37:40.689Z,14.82
2023-04-09T23:40:47.610Z,16.17
2023-04-09T23:43:54.201Z,15.07
2023-04-09T23:46:59.660Z,14.25
2023-04-09T23:50:08.780Z,13.75
2023-04-09T23:53:14.026Z,14.15
2023-04-09T23:56:19.624Z,13.32
2023-04-09T23:59:24.857Z,15.90
